<?xml version="1.0" encoding="UTF-8" standalone="no" ?>
<gpx xmlns="http://www.topografix.com/GPX/1/1" xmlns:xsi="http://www.w3.org/2001/XMLSchema-instance" xsi:schemaLocation="http://www.topografix.com/GPX/1/1 http://www.topografix.com/GPX/1/1/gpx.xsd" version="1.1" creator="VisuGPX - https://www.visugpx.com">
  <metadata>
    <name>Gelas</name>
    <desc><![CDATA[Madone des Fenestres > Gelas par couloir Est > Retour]]></desc>
  </metadata>
  <wpt lat="44.09355" lon="7.3568">
    <ele>1847</ele>
    <name><![CDATA[0000053]]></name>
  </wpt>
  <wpt lat="44.09355" lon="7.3568">
    <ele>1847</ele>
    <name><![CDATA[0000053]]></name>
  </wpt>
  <wpt lat="44.09383" lon="7.3567">
    <ele>1850</ele>
    <name><![CDATA[0000055]]></name>
  </wpt>
  <trk>
    <name><![CDATA[2019-05-01 08:04]]></name>
    <trkseg>
      <trkpt lat="44.09355" lon="7.3568">
        <ele>1847</ele>
        <time>2019-05-01T06:04:08.000Z</time>
      </trkpt>
      <trkpt lat="44.09366" lon="7.35699">
        <ele>1850</ele>
        <time>2019-05-01T06:04:30.000Z</time>
      </trkpt>
      <trkpt lat="44.0937" lon="7.35724">
        <ele>1851</ele>
        <time>2019-05-01T06:04:47.000Z</time>
      </trkpt>
      <trkpt lat="44.09377" lon="7.35748">
        <ele>1852</ele>
        <time>2019-05-01T06:05:06.000Z</time>
      </trkpt>
      <trkpt lat="44.09384" lon="7.35772">
        <ele>1860</ele>
        <time>2019-05-01T06:05:19.000Z</time>
      </trkpt>
      <trkpt lat="44.09394" lon="7.35794">
        <ele>1861</ele>
        <time>2019-05-01T06:05:35.000Z</time>
      </trkpt>
      <trkpt lat="44.09409" lon="7.35809">
        <ele>1860</ele>
        <time>2019-05-01T06:05:56.000Z</time>
      </trkpt>
      <trkpt lat="44.09424" lon="7.35824">
        <ele>1857</ele>
        <time>2019-05-01T06:06:18.000Z</time>
      </trkpt>
      <trkpt lat="44.09423" lon="7.35849">
        <ele>1859</ele>
        <time>2019-05-01T06:06:44.000Z</time>
      </trkpt>
      <trkpt lat="44.09423" lon="7.35875">
        <ele>1862</ele>
        <time>2019-05-01T06:07:04.000Z</time>
      </trkpt>
      <trkpt lat="44.09427" lon="7.359">
        <ele>1864</ele>
        <time>2019-05-01T06:07:23.000Z</time>
      </trkpt>
      <trkpt lat="44.09432" lon="7.35925">
        <ele>1869</ele>
        <time>2019-05-01T06:07:40.000Z</time>
      </trkpt>
      <trkpt lat="44.09438" lon="7.35949">
        <ele>1869</ele>
        <time>2019-05-01T06:07:58.000Z</time>
      </trkpt>
      <trkpt lat="44.09443" lon="7.35973">
        <ele>1871</ele>
        <time>2019-05-01T06:08:16.000Z</time>
      </trkpt>
      <trkpt lat="44.09459" lon="7.35986">
        <ele>1870</ele>
        <time>2019-05-01T06:08:35.000Z</time>
      </trkpt>
      <trkpt lat="44.09476" lon="7.36">
        <ele>1868</ele>
        <time>2019-05-01T06:08:52.000Z</time>
      </trkpt>
      <trkpt lat="44.09487" lon="7.36019">
        <ele>1875</ele>
        <time>2019-05-01T06:09:09.000Z</time>
      </trkpt>
      <trkpt lat="44.09505" lon="7.36018">
        <ele>1870</ele>
        <time>2019-05-01T06:09:25.000Z</time>
      </trkpt>
      <trkpt lat="44.09523" lon="7.36012">
        <ele>1870</ele>
        <time>2019-05-01T06:09:39.000Z</time>
      </trkpt>
      <trkpt lat="44.09541" lon="7.36009">
        <ele>1872</ele>
        <time>2019-05-01T06:10:01.000Z</time>
      </trkpt>
      <trkpt lat="44.0956" lon="7.3601">
        <ele>1872</ele>
        <time>2019-05-01T06:10:23.000Z</time>
      </trkpt>
      <trkpt lat="44.09577" lon="7.36017">
        <ele>1873</ele>
        <time>2019-05-01T06:10:50.000Z</time>
      </trkpt>
      <trkpt lat="44.09591" lon="7.36033">
        <ele>1880</ele>
        <time>2019-05-01T06:11:28.000Z</time>
      </trkpt>
      <trkpt lat="44.09603" lon="7.36053">
        <ele>1882</ele>
        <time>2019-05-01T06:11:52.000Z</time>
      </trkpt>
      <trkpt lat="44.0961" lon="7.36077">
        <ele>1882</ele>
        <time>2019-05-01T06:12:21.000Z</time>
      </trkpt>
      <trkpt lat="44.09608" lon="7.36102">
        <ele>1884</ele>
        <time>2019-05-01T06:12:50.000Z</time>
      </trkpt>
      <trkpt lat="44.09611" lon="7.36127">
        <ele>1886</ele>
        <time>2019-05-01T06:13:16.000Z</time>
      </trkpt>
      <trkpt lat="44.09625" lon="7.36145">
        <ele>1886</ele>
        <time>2019-05-01T06:13:39.000Z</time>
      </trkpt>
      <trkpt lat="44.0964" lon="7.36158">
        <ele>1886</ele>
        <time>2019-05-01T06:14:01.000Z</time>
      </trkpt>
      <trkpt lat="44.09655" lon="7.36174">
        <ele>1889</ele>
        <time>2019-05-01T06:14:22.000Z</time>
      </trkpt>
      <trkpt lat="44.09672" lon="7.36185">
        <ele>1892</ele>
        <time>2019-05-01T06:14:45.000Z</time>
      </trkpt>
      <trkpt lat="44.09688" lon="7.36198">
        <ele>1896</ele>
        <time>2019-05-01T06:15:13.000Z</time>
      </trkpt>
      <trkpt lat="44.09707" lon="7.36196">
        <ele>1897</ele>
        <time>2019-05-01T06:15:31.000Z</time>
      </trkpt>
      <trkpt lat="44.09725" lon="7.36198">
        <ele>1899</ele>
        <time>2019-05-01T06:15:54.000Z</time>
      </trkpt>
      <trkpt lat="44.09737" lon="7.36217">
        <ele>1901</ele>
        <time>2019-05-01T06:16:25.000Z</time>
      </trkpt>
      <trkpt lat="44.09756" lon="7.36218">
        <ele>1914</ele>
        <time>2019-05-01T06:17:03.000Z</time>
      </trkpt>
      <trkpt lat="44.09774" lon="7.36221">
        <ele>1915</ele>
        <time>2019-05-01T06:17:49.000Z</time>
      </trkpt>
      <trkpt lat="44.09792" lon="7.36222">
        <ele>1918</ele>
        <time>2019-05-01T06:18:18.000Z</time>
      </trkpt>
      <trkpt lat="44.09809" lon="7.36233">
        <ele>1921</ele>
        <time>2019-05-01T06:18:48.000Z</time>
      </trkpt>
      <trkpt lat="44.09825" lon="7.36247">
        <ele>1927</ele>
        <time>2019-05-01T06:19:10.000Z</time>
      </trkpt>
      <trkpt lat="44.09842" lon="7.36255">
        <ele>1939</ele>
        <time>2019-05-01T06:19:45.000Z</time>
      </trkpt>
      <trkpt lat="44.0986" lon="7.36257">
        <ele>1946</ele>
        <time>2019-05-01T06:20:37.000Z</time>
      </trkpt>
      <trkpt lat="44.09877" lon="7.36265">
        <ele>1951</ele>
        <time>2019-05-01T06:21:18.000Z</time>
      </trkpt>
      <trkpt lat="44.09895" lon="7.36269">
        <ele>1954</ele>
        <time>2019-05-01T06:22:00.000Z</time>
      </trkpt>
      <trkpt lat="44.09913" lon="7.36273">
        <ele>1955</ele>
        <time>2019-05-01T06:22:29.000Z</time>
      </trkpt>
      <trkpt lat="44.09931" lon="7.36275">
        <ele>1967</ele>
        <time>2019-05-01T06:23:14.000Z</time>
      </trkpt>
      <trkpt lat="44.09949" lon="7.36276">
        <ele>1969</ele>
        <time>2019-05-01T06:23:57.000Z</time>
      </trkpt>
      <trkpt lat="44.09967" lon="7.36283">
        <ele>1972</ele>
        <time>2019-05-01T06:24:40.000Z</time>
      </trkpt>
      <trkpt lat="44.09984" lon="7.3629">
        <ele>1974</ele>
        <time>2019-05-01T06:28:02.000Z</time>
      </trkpt>
      <trkpt lat="44.10001" lon="7.363">
        <ele>1986</ele>
        <time>2019-05-01T06:28:26.000Z</time>
      </trkpt>
      <trkpt lat="44.10005" lon="7.36325">
        <ele>1989</ele>
        <time>2019-05-01T06:28:51.000Z</time>
      </trkpt>
      <trkpt lat="44.10021" lon="7.36338">
        <ele>2001</ele>
        <time>2019-05-01T06:29:28.000Z</time>
      </trkpt>
      <trkpt lat="44.10039" lon="7.36341">
        <ele>2006</ele>
        <time>2019-05-01T06:30:00.000Z</time>
      </trkpt>
      <trkpt lat="44.10057" lon="7.36348">
        <ele>2008</ele>
        <time>2019-05-01T06:30:33.000Z</time>
      </trkpt>
      <trkpt lat="44.10074" lon="7.36356">
        <ele>2009</ele>
        <time>2019-05-01T06:31:10.000Z</time>
      </trkpt>
      <trkpt lat="44.1008" lon="7.36381">
        <ele>2014</ele>
        <time>2019-05-01T06:31:48.000Z</time>
      </trkpt>
      <trkpt lat="44.10081" lon="7.36406">
        <ele>2023</ele>
        <time>2019-05-01T06:32:08.000Z</time>
      </trkpt>
      <trkpt lat="44.10088" lon="7.36429">
        <ele>2036</ele>
        <time>2019-05-01T06:32:32.000Z</time>
      </trkpt>
      <trkpt lat="44.10097" lon="7.36451">
        <ele>2042</ele>
        <time>2019-05-01T06:32:58.000Z</time>
      </trkpt>
      <trkpt lat="44.101" lon="7.36477">
        <ele>2045</ele>
        <time>2019-05-01T06:33:26.000Z</time>
      </trkpt>
      <trkpt lat="44.10113" lon="7.36496">
        <ele>2047</ele>
        <time>2019-05-01T06:34:02.000Z</time>
      </trkpt>
      <trkpt lat="44.10126" lon="7.36513">
        <ele>2063</ele>
        <time>2019-05-01T06:34:37.000Z</time>
      </trkpt>
      <trkpt lat="44.10143" lon="7.36524">
        <ele>2065</ele>
        <time>2019-05-01T06:35:13.000Z</time>
      </trkpt>
      <trkpt lat="44.10159" lon="7.36538">
        <ele>2068</ele>
        <time>2019-05-01T06:35:41.000Z</time>
      </trkpt>
      <trkpt lat="44.10173" lon="7.36554">
        <ele>2074</ele>
        <time>2019-05-01T06:36:17.000Z</time>
      </trkpt>
      <trkpt lat="44.1019" lon="7.36565">
        <ele>2075</ele>
        <time>2019-05-01T06:36:44.000Z</time>
      </trkpt>
      <trkpt lat="44.10203" lon="7.36581">
        <ele>2075</ele>
        <time>2019-05-01T06:37:14.000Z</time>
      </trkpt>
      <trkpt lat="44.10213" lon="7.36604">
        <ele>2084</ele>
        <time>2019-05-01T06:37:54.000Z</time>
      </trkpt>
      <trkpt lat="44.10205" lon="7.36627">
        <ele>2086</ele>
        <time>2019-05-01T06:39:36.000Z</time>
      </trkpt>
      <trkpt lat="44.10203" lon="7.36653">
        <ele>2088</ele>
        <time>2019-05-01T06:39:57.000Z</time>
      </trkpt>
      <trkpt lat="44.10199" lon="7.36678">
        <ele>2096</ele>
        <time>2019-05-01T06:40:19.000Z</time>
      </trkpt>
      <trkpt lat="44.10198" lon="7.36704">
        <ele>2097</ele>
        <time>2019-05-01T06:40:42.001Z</time>
      </trkpt>
      <trkpt lat="44.10196" lon="7.36729">
        <ele>2099</ele>
        <time>2019-05-01T06:41:10.001Z</time>
      </trkpt>
      <trkpt lat="44.10195" lon="7.36755">
        <ele>2106</ele>
        <time>2019-05-01T06:41:30.001Z</time>
      </trkpt>
      <trkpt lat="44.10191" lon="7.36781">
        <ele>2107</ele>
        <time>2019-05-01T06:41:49.001Z</time>
      </trkpt>
      <trkpt lat="44.10189" lon="7.36806">
        <ele>2108</ele>
        <time>2019-05-01T06:42:11.001Z</time>
      </trkpt>
      <trkpt lat="44.10187" lon="7.36831">
        <ele>2110</ele>
        <time>2019-05-01T06:42:33.001Z</time>
      </trkpt>
      <trkpt lat="44.1019" lon="7.36857">
        <ele>2117</ele>
        <time>2019-05-01T06:42:53.001Z</time>
      </trkpt>
      <trkpt lat="44.102" lon="7.36877">
        <ele>2118</ele>
        <time>2019-05-01T06:43:17.001Z</time>
      </trkpt>
      <trkpt lat="44.10214" lon="7.36893">
        <ele>2118</ele>
        <time>2019-05-01T06:43:37.001Z</time>
      </trkpt>
      <trkpt lat="44.10229" lon="7.36908">
        <ele>2117</ele>
        <time>2019-05-01T06:44:08.001Z</time>
      </trkpt>
      <trkpt lat="44.10247" lon="7.36914">
        <ele>2116</ele>
        <time>2019-05-01T06:44:36.001Z</time>
      </trkpt>
      <trkpt lat="44.1026" lon="7.3693">
        <ele>2123</ele>
        <time>2019-05-01T06:45:19.001Z</time>
      </trkpt>
      <trkpt lat="44.10273" lon="7.3695">
        <ele>2128</ele>
        <time>2019-05-01T06:45:52.001Z</time>
      </trkpt>
      <trkpt lat="44.10284" lon="7.36972">
        <ele>2131</ele>
        <time>2019-05-01T06:46:25.001Z</time>
      </trkpt>
      <trkpt lat="44.10295" lon="7.36993">
        <ele>2132</ele>
        <time>2019-05-01T06:46:39.001Z</time>
      </trkpt>
      <trkpt lat="44.10305" lon="7.37015">
        <ele>2142</ele>
        <time>2019-05-01T06:47:04.001Z</time>
      </trkpt>
      <trkpt lat="44.10313" lon="7.37039">
        <ele>2143</ele>
        <time>2019-05-01T06:47:25.001Z</time>
      </trkpt>
      <trkpt lat="44.10322" lon="7.37062">
        <ele>2144</ele>
        <time>2019-05-01T06:47:44.001Z</time>
      </trkpt>
      <trkpt lat="44.10327" lon="7.37086">
        <ele>2146</ele>
        <time>2019-05-01T06:48:05.001Z</time>
      </trkpt>
      <trkpt lat="44.10333" lon="7.37112">
        <ele>2149</ele>
        <time>2019-05-01T06:48:29.001Z</time>
      </trkpt>
      <trkpt lat="44.1034" lon="7.37136">
        <ele>2153</ele>
        <time>2019-05-01T06:48:52.001Z</time>
      </trkpt>
      <trkpt lat="44.1034" lon="7.37162">
        <ele>2147</ele>
        <time>2019-05-01T06:49:14.001Z</time>
      </trkpt>
      <trkpt lat="44.1034" lon="7.37187">
        <ele>2150</ele>
        <time>2019-05-01T06:49:33.001Z</time>
      </trkpt>
      <trkpt lat="44.10349" lon="7.37211">
        <ele>2152</ele>
        <time>2019-05-01T06:50:01.001Z</time>
      </trkpt>
      <trkpt lat="44.10364" lon="7.37225">
        <ele>2153</ele>
        <time>2019-05-01T06:50:17.001Z</time>
      </trkpt>
      <trkpt lat="44.10381" lon="7.37235">
        <ele>2155</ele>
        <time>2019-05-01T06:50:29.001Z</time>
      </trkpt>
      <trkpt lat="44.10387" lon="7.3726">
        <ele>2157</ele>
        <time>2019-05-01T06:50:53.001Z</time>
      </trkpt>
      <trkpt lat="44.10397" lon="7.37281">
        <ele>2158</ele>
        <time>2019-05-01T06:51:15.001Z</time>
      </trkpt>
      <trkpt lat="44.10406" lon="7.37303">
        <ele>2158</ele>
        <time>2019-05-01T06:51:43.001Z</time>
      </trkpt>
      <trkpt lat="44.10418" lon="7.37324">
        <ele>2166</ele>
        <time>2019-05-01T06:52:06.001Z</time>
      </trkpt>
      <trkpt lat="44.10431" lon="7.37341">
        <ele>2172</ele>
        <time>2019-05-01T06:52:40.001Z</time>
      </trkpt>
      <trkpt lat="44.10449" lon="7.37351">
        <ele>2180</ele>
        <time>2019-05-01T06:53:07.001Z</time>
      </trkpt>
      <trkpt lat="44.1046" lon="7.37372">
        <ele>2184</ele>
        <time>2019-05-01T06:53:40.001Z</time>
      </trkpt>
      <trkpt lat="44.10474" lon="7.37388">
        <ele>2187</ele>
        <time>2019-05-01T06:54:10.001Z</time>
      </trkpt>
      <trkpt lat="44.10476" lon="7.37413">
        <ele>2188</ele>
        <time>2019-05-01T06:54:49.001Z</time>
      </trkpt>
      <trkpt lat="44.10486" lon="7.37435">
        <ele>2196</ele>
        <time>2019-05-01T06:55:23.001Z</time>
      </trkpt>
      <trkpt lat="44.10498" lon="7.37455">
        <ele>2198</ele>
        <time>2019-05-01T06:55:53.001Z</time>
      </trkpt>
      <trkpt lat="44.10513" lon="7.37468">
        <ele>2213</ele>
        <time>2019-05-01T06:56:21.001Z</time>
      </trkpt>
      <trkpt lat="44.10528" lon="7.37485">
        <ele>2215</ele>
        <time>2019-05-01T06:56:42.001Z</time>
      </trkpt>
      <trkpt lat="44.10526" lon="7.3751">
        <ele>2218</ele>
        <time>2019-05-01T06:57:17.001Z</time>
      </trkpt>
      <trkpt lat="44.10533" lon="7.37534">
        <ele>2223</ele>
        <time>2019-05-01T06:57:43.001Z</time>
      </trkpt>
      <trkpt lat="44.10549" lon="7.37545">
        <ele>2226</ele>
        <time>2019-05-01T06:58:14.001Z</time>
      </trkpt>
      <trkpt lat="44.10567" lon="7.37552">
        <ele>2227</ele>
        <time>2019-05-01T06:58:51.001Z</time>
      </trkpt>
      <trkpt lat="44.10582" lon="7.37566">
        <ele>2228</ele>
        <time>2019-05-01T06:59:25.001Z</time>
      </trkpt>
      <trkpt lat="44.10592" lon="7.37588">
        <ele>2237</ele>
        <time>2019-05-01T07:00:14.001Z</time>
      </trkpt>
      <trkpt lat="44.10608" lon="7.37601">
        <ele>2247</ele>
        <time>2019-05-01T07:00:52.001Z</time>
      </trkpt>
      <trkpt lat="44.10612" lon="7.37626">
        <ele>2252</ele>
        <time>2019-05-01T07:01:19.001Z</time>
      </trkpt>
      <trkpt lat="44.10625" lon="7.37643">
        <ele>2255</ele>
        <time>2019-05-01T07:02:00.000Z</time>
      </trkpt>
      <trkpt lat="44.10636" lon="7.37663">
        <ele>2259</ele>
        <time>2019-05-01T07:02:36.001Z</time>
      </trkpt>
      <trkpt lat="44.10653" lon="7.37673">
        <ele>2271</ele>
        <time>2019-05-01T07:03:10.001Z</time>
      </trkpt>
      <trkpt lat="44.10671" lon="7.37681">
        <ele>2282</ele>
        <time>2019-05-01T07:03:46.001Z</time>
      </trkpt>
      <trkpt lat="44.10687" lon="7.37669">
        <ele>2286</ele>
        <time>2019-05-01T07:04:28.001Z</time>
      </trkpt>
      <trkpt lat="44.10705" lon="7.37663">
        <ele>2291</ele>
        <time>2019-05-01T07:05:03.001Z</time>
      </trkpt>
      <trkpt lat="44.10715" lon="7.37684">
        <ele>2298</ele>
        <time>2019-05-01T07:05:50.001Z</time>
      </trkpt>
      <trkpt lat="44.10719" lon="7.37712">
        <ele>2300</ele>
        <time>2019-05-01T07:06:51.001Z</time>
      </trkpt>
      <trkpt lat="44.10723" lon="7.37737">
        <ele>2304</ele>
        <time>2019-05-01T07:07:25.001Z</time>
      </trkpt>
      <trkpt lat="44.10726" lon="7.37762">
        <ele>2316</ele>
        <time>2019-05-01T07:07:55.001Z</time>
      </trkpt>
      <trkpt lat="44.10727" lon="7.37788">
        <ele>2320</ele>
        <time>2019-05-01T07:08:38.001Z</time>
      </trkpt>
      <trkpt lat="44.10745" lon="7.37795">
        <ele>2324</ele>
        <time>2019-05-01T07:09:16.000Z</time>
      </trkpt>
      <trkpt lat="44.10763" lon="7.37788">
        <ele>2352</ele>
        <time>2019-05-01T07:09:39.001Z</time>
      </trkpt>
      <trkpt lat="44.10772" lon="7.37767">
        <ele>2348</ele>
        <time>2019-05-01T07:10:38.001Z</time>
      </trkpt>
      <trkpt lat="44.10787" lon="7.37749">
        <ele>2341</ele>
        <time>2019-05-01T07:11:08.001Z</time>
      </trkpt>
      <trkpt lat="44.108" lon="7.37731">
        <ele>2345</ele>
        <time>2019-05-01T07:11:50.001Z</time>
      </trkpt>
      <trkpt lat="44.10805" lon="7.37707">
        <ele>2344</ele>
        <time>2019-05-01T07:12:13.001Z</time>
      </trkpt>
      <trkpt lat="44.10814" lon="7.37684">
        <ele>2346</ele>
        <time>2019-05-01T07:12:34.001Z</time>
      </trkpt>
      <trkpt lat="44.10831" lon="7.37674">
        <ele>2351</ele>
        <time>2019-05-01T07:13:12.001Z</time>
      </trkpt>
      <trkpt lat="44.10848" lon="7.37665">
        <ele>2363</ele>
        <time>2019-05-01T07:13:56.001Z</time>
      </trkpt>
      <trkpt lat="44.1086" lon="7.37647">
        <ele>2368</ele>
        <time>2019-05-01T07:15:16.000Z</time>
      </trkpt>
      <trkpt lat="44.10878" lon="7.37642">
        <ele>2373</ele>
        <time>2019-05-01T07:17:40.001Z</time>
      </trkpt>
      <trkpt lat="44.10896" lon="7.37636">
        <ele>2376</ele>
        <time>2019-05-01T07:25:43.001Z</time>
      </trkpt>
      <trkpt lat="44.10914" lon="7.37631">
        <ele>2378</ele>
        <time>2019-05-01T07:26:10.001Z</time>
      </trkpt>
      <trkpt lat="44.10932" lon="7.37633">
        <ele>2395</ele>
        <time>2019-05-01T07:26:47.001Z</time>
      </trkpt>
      <trkpt lat="44.1095" lon="7.37631">
        <ele>2396</ele>
        <time>2019-05-01T07:27:22.001Z</time>
      </trkpt>
      <trkpt lat="44.10968" lon="7.37633">
        <ele>2398</ele>
        <time>2019-05-01T07:27:54.001Z</time>
      </trkpt>
      <trkpt lat="44.10987" lon="7.37633">
        <ele>2400</ele>
        <time>2019-05-01T07:28:40.001Z</time>
      </trkpt>
      <trkpt lat="44.11004" lon="7.37642">
        <ele>2406</ele>
        <time>2019-05-01T07:29:06.001Z</time>
      </trkpt>
      <trkpt lat="44.11018" lon="7.37659">
        <ele>2409</ele>
        <time>2019-05-01T07:31:24.001Z</time>
      </trkpt>
      <trkpt lat="44.11011" lon="7.37682">
        <ele>2428</ele>
        <time>2019-05-01T07:32:12.001Z</time>
      </trkpt>
      <trkpt lat="44.11017" lon="7.37706">
        <ele>2437</ele>
        <time>2019-05-01T07:33:32.001Z</time>
      </trkpt>
      <trkpt lat="44.11024" lon="7.37729">
        <ele>2443</ele>
        <time>2019-05-01T07:34:34.001Z</time>
      </trkpt>
      <trkpt lat="44.11034" lon="7.37751">
        <ele>2467</ele>
        <time>2019-05-01T07:36:17.001Z</time>
      </trkpt>
      <trkpt lat="44.11044" lon="7.37772">
        <ele>2470</ele>
        <time>2019-05-01T07:36:58.001Z</time>
      </trkpt>
      <trkpt lat="44.11055" lon="7.37793">
        <ele>2473</ele>
        <time>2019-05-01T07:37:30.001Z</time>
      </trkpt>
      <trkpt lat="44.11061" lon="7.37817">
        <ele>2479</ele>
        <time>2019-05-01T07:38:09.001Z</time>
      </trkpt>
      <trkpt lat="44.11063" lon="7.37842">
        <ele>2490</ele>
        <time>2019-05-01T07:38:45.001Z</time>
      </trkpt>
      <trkpt lat="44.11057" lon="7.37866">
        <ele>2491</ele>
        <time>2019-05-01T07:39:33.001Z</time>
      </trkpt>
      <trkpt lat="44.11052" lon="7.37891">
        <ele>2493</ele>
        <time>2019-05-01T07:40:19.001Z</time>
      </trkpt>
      <trkpt lat="44.11056" lon="7.37915">
        <ele>2495</ele>
        <time>2019-05-01T07:41:02.000Z</time>
      </trkpt>
      <trkpt lat="44.11071" lon="7.37932">
        <ele>2506</ele>
        <time>2019-05-01T07:41:54.001Z</time>
      </trkpt>
      <trkpt lat="44.1108" lon="7.37954">
        <ele>2510</ele>
        <time>2019-05-01T07:42:52.001Z</time>
      </trkpt>
      <trkpt lat="44.11091" lon="7.37975">
        <ele>2529</ele>
        <time>2019-05-01T07:43:31.001Z</time>
      </trkpt>
      <trkpt lat="44.11105" lon="7.37991">
        <ele>2532</ele>
        <time>2019-05-01T07:44:16.000Z</time>
      </trkpt>
      <trkpt lat="44.11122" lon="7.38003">
        <ele>2541</ele>
        <time>2019-05-01T07:44:57.001Z</time>
      </trkpt>
      <trkpt lat="44.11137" lon="7.38016">
        <ele>2544</ele>
        <time>2019-05-01T07:45:46.001Z</time>
      </trkpt>
      <trkpt lat="44.11156" lon="7.38024">
        <ele>2546</ele>
        <time>2019-05-01T07:46:13.001Z</time>
      </trkpt>
      <trkpt lat="44.11173" lon="7.38032">
        <ele>2550</ele>
        <time>2019-05-01T07:46:49.001Z</time>
      </trkpt>
      <trkpt lat="44.11189" lon="7.38044">
        <ele>2550</ele>
        <time>2019-05-01T07:47:26.001Z</time>
      </trkpt>
      <trkpt lat="44.11208" lon="7.38051">
        <ele>2550</ele>
        <time>2019-05-01T07:53:26.001Z</time>
      </trkpt>
      <trkpt lat="44.11226" lon="7.38047">
        <ele>2550</ele>
        <time>2019-05-01T07:53:50.001Z</time>
      </trkpt>
      <trkpt lat="44.11244" lon="7.38042">
        <ele>2550</ele>
        <time>2019-05-01T07:54:35.001Z</time>
      </trkpt>
      <trkpt lat="44.11262" lon="7.38046">
        <ele>2584.7</ele>
        <time>2019-05-01T07:55:08.001Z</time>
      </trkpt>
      <trkpt lat="44.11279" lon="7.38055">
        <ele>2587.88</ele>
        <time>2019-05-01T07:55:41.001Z</time>
      </trkpt>
      <trkpt lat="44.11294" lon="7.38068">
        <ele>2588.01</ele>
        <time>2019-05-01T07:56:17.001Z</time>
      </trkpt>
      <trkpt lat="44.1131" lon="7.38082">
        <ele>2591.15</ele>
        <time>2019-05-01T07:57:00.000Z</time>
      </trkpt>
      <trkpt lat="44.11324" lon="7.38099">
        <ele>2594.45</ele>
        <time>2019-05-01T07:57:40.001Z</time>
      </trkpt>
      <trkpt lat="44.11337" lon="7.38115">
        <ele>2599.75</ele>
        <time>2019-05-01T07:58:19.001Z</time>
      </trkpt>
      <trkpt lat="44.11349" lon="7.38135">
        <ele>2604.21</ele>
        <time>2019-05-01T07:58:58.001Z</time>
      </trkpt>
      <trkpt lat="44.11357" lon="7.38158">
        <ele>2610.57</ele>
        <time>2019-05-01T07:59:41.001Z</time>
      </trkpt>
      <trkpt lat="44.11368" lon="7.38179">
        <ele>2614</ele>
        <time>2019-05-01T08:00:20.001Z</time>
      </trkpt>
      <trkpt lat="44.11379" lon="7.38199">
        <ele>2619.86</ele>
        <time>2019-05-01T08:01:03.001Z</time>
      </trkpt>
      <trkpt lat="44.11391" lon="7.38219">
        <ele>2624.71</ele>
        <time>2019-05-01T08:01:38.001Z</time>
      </trkpt>
      <trkpt lat="44.11403" lon="7.38238">
        <ele>2628.96</ele>
        <time>2019-05-01T08:02:29.001Z</time>
      </trkpt>
      <trkpt lat="44.11418" lon="7.38251">
        <ele>2633.14</ele>
        <time>2019-05-01T08:03:24.001Z</time>
      </trkpt>
      <trkpt lat="44.11435" lon="7.38261">
        <ele>2637.01</ele>
        <time>2019-05-01T08:04:07.001Z</time>
      </trkpt>
      <trkpt lat="44.11451" lon="7.38272">
        <ele>2636.97</ele>
        <time>2019-05-01T08:04:44.001Z</time>
      </trkpt>
      <trkpt lat="44.11467" lon="7.38285">
        <ele>2644.23</ele>
        <time>2019-05-01T08:05:36.001Z</time>
      </trkpt>
      <trkpt lat="44.11474" lon="7.38309">
        <ele>2648.91</ele>
        <time>2019-05-01T08:07:03.001Z</time>
      </trkpt>
      <trkpt lat="44.11492" lon="7.38316">
        <ele>2668.98</ele>
        <time>2019-05-01T08:09:10.001Z</time>
      </trkpt>
      <trkpt lat="44.11509" lon="7.38326">
        <ele>2685.27</ele>
        <time>2019-05-01T08:11:03.001Z</time>
      </trkpt>
      <trkpt lat="44.11513" lon="7.3835">
        <ele>2697.51</ele>
        <time>2019-05-01T08:12:29.001Z</time>
      </trkpt>
      <trkpt lat="44.1151" lon="7.38375">
        <ele>2704.29</ele>
        <time>2019-05-01T08:14:06.001Z</time>
      </trkpt>
      <trkpt lat="44.11523" lon="7.38391">
        <ele>2713.17</ele>
        <time>2019-05-01T08:15:01.001Z</time>
      </trkpt>
      <trkpt lat="44.1154" lon="7.38401">
        <ele>2714.88</ele>
        <time>2019-05-01T08:15:30.001Z</time>
      </trkpt>
      <trkpt lat="44.11558" lon="7.38406">
        <ele>2727.02</ele>
        <time>2019-05-01T08:17:00.000Z</time>
      </trkpt>
      <trkpt lat="44.1157" lon="7.38424">
        <ele>2728.71</ele>
        <time>2019-05-01T08:18:01.001Z</time>
      </trkpt>
      <trkpt lat="44.11586" lon="7.38437">
        <ele>2730.93</ele>
        <time>2019-05-01T08:19:22.001Z</time>
      </trkpt>
      <trkpt lat="44.11604" lon="7.38444">
        <ele>2737.32</ele>
        <time>2019-05-01T08:20:33.001Z</time>
      </trkpt>
      <trkpt lat="44.11622" lon="7.38443">
        <ele>2742.61</ele>
        <time>2019-05-01T08:21:26.001Z</time>
      </trkpt>
      <trkpt lat="44.1164" lon="7.38445">
        <ele>2751.04</ele>
        <time>2019-05-01T08:22:31.001Z</time>
      </trkpt>
      <trkpt lat="44.11641" lon="7.38471">
        <ele>2769.7</ele>
        <time>2019-05-01T08:23:52.001Z</time>
      </trkpt>
      <trkpt lat="44.11653" lon="7.3849">
        <ele>2785.82</ele>
        <time>2019-05-01T08:29:18.001Z</time>
      </trkpt>
      <trkpt lat="44.1167" lon="7.38499">
        <ele>2832</ele>
        <time>2019-05-01T08:31:19.001Z</time>
      </trkpt>
      <trkpt lat="44.11689" lon="7.38498">
        <ele>2832</ele>
        <time>2019-05-01T08:31:36.001Z</time>
      </trkpt>
      <trkpt lat="44.11707" lon="7.38498">
        <ele>2832</ele>
        <time>2019-05-01T08:32:03.001Z</time>
      </trkpt>
      <trkpt lat="44.11725" lon="7.38491">
        <ele>2831</ele>
        <time>2019-05-01T08:36:23.001Z</time>
      </trkpt>
      <trkpt lat="44.11743" lon="7.38489">
        <ele>2831</ele>
        <time>2019-05-01T08:36:55.001Z</time>
      </trkpt>
      <trkpt lat="44.11761" lon="7.38488">
        <ele>2837</ele>
        <time>2019-05-01T08:37:23.001Z</time>
      </trkpt>
      <trkpt lat="44.11777" lon="7.38501">
        <ele>2841</ele>
        <time>2019-05-01T08:38:11.001Z</time>
      </trkpt>
      <trkpt lat="44.11794" lon="7.38511">
        <ele>2845</ele>
        <time>2019-05-01T08:38:53.001Z</time>
      </trkpt>
      <trkpt lat="44.11809" lon="7.38525">
        <ele>2848</ele>
        <time>2019-05-01T08:39:57.001Z</time>
      </trkpt>
      <trkpt lat="44.11826" lon="7.38537">
        <ele>2850</ele>
        <time>2019-05-01T08:40:50.001Z</time>
      </trkpt>
      <trkpt lat="44.11844" lon="7.38537">
        <ele>2873</ele>
        <time>2019-05-01T08:41:42.001Z</time>
      </trkpt>
      <trkpt lat="44.1186" lon="7.38548">
        <ele>2877</ele>
        <time>2019-05-01T08:42:49.001Z</time>
      </trkpt>
      <trkpt lat="44.11877" lon="7.38541">
        <ele>2881</ele>
        <time>2019-05-01T08:44:20.001Z</time>
      </trkpt>
      <trkpt lat="44.11881" lon="7.38566">
        <ele>2882</ele>
        <time>2019-05-01T08:45:34.001Z</time>
      </trkpt>
      <trkpt lat="44.11899" lon="7.3856">
        <ele>2887</ele>
        <time>2019-05-01T08:46:27.001Z</time>
      </trkpt>
      <trkpt lat="44.11917" lon="7.38564">
        <ele>2909</ele>
        <time>2019-05-01T08:48:43.001Z</time>
      </trkpt>
      <trkpt lat="44.11935" lon="7.38571">
        <ele>2911</ele>
        <time>2019-05-01T08:49:42.001Z</time>
      </trkpt>
      <trkpt lat="44.11952" lon="7.38581">
        <ele>2915</ele>
        <time>2019-05-01T08:50:19.001Z</time>
      </trkpt>
      <trkpt lat="44.11969" lon="7.38587">
        <ele>2919</ele>
        <time>2019-05-01T08:51:19.001Z</time>
      </trkpt>
      <trkpt lat="44.11988" lon="7.38589">
        <ele>2923</ele>
        <time>2019-05-01T08:51:51.001Z</time>
      </trkpt>
      <trkpt lat="44.12006" lon="7.38586">
        <ele>2929</ele>
        <time>2019-05-01T08:57:58.001Z</time>
      </trkpt>
      <trkpt lat="44.12024" lon="7.38579">
        <ele>2934</ele>
        <time>2019-05-01T08:58:41.001Z</time>
      </trkpt>
      <trkpt lat="44.12041" lon="7.38571">
        <ele>2937</ele>
        <time>2019-05-01T08:59:14.001Z</time>
      </trkpt>
      <trkpt lat="44.12059" lon="7.38569">
        <ele>2939</ele>
        <time>2019-05-01T09:00:03.001Z</time>
      </trkpt>
      <trkpt lat="44.12077" lon="7.38568">
        <ele>2940</ele>
        <time>2019-05-01T09:00:27.001Z</time>
      </trkpt>
      <trkpt lat="44.12095" lon="7.38568">
        <ele>2950</ele>
        <time>2019-05-01T09:01:07.001Z</time>
      </trkpt>
      <trkpt lat="44.12113" lon="7.38569">
        <ele>2954</ele>
        <time>2019-05-01T09:01:47.001Z</time>
      </trkpt>
      <trkpt lat="44.12132" lon="7.3857">
        <ele>2959</ele>
        <time>2019-05-01T09:02:44.001Z</time>
      </trkpt>
      <trkpt lat="44.1215" lon="7.38568">
        <ele>2963</ele>
        <time>2019-05-01T09:03:19.001Z</time>
      </trkpt>
      <trkpt lat="44.12168" lon="7.3857">
        <ele>2976</ele>
        <time>2019-05-01T09:04:07.001Z</time>
      </trkpt>
      <trkpt lat="44.12186" lon="7.38575">
        <ele>2978</ele>
        <time>2019-05-01T09:05:15.001Z</time>
      </trkpt>
      <trkpt lat="44.12204" lon="7.38578">
        <ele>2981</ele>
        <time>2019-05-01T09:06:29.001Z</time>
      </trkpt>
      <trkpt lat="44.12222" lon="7.38576">
        <ele>2984</ele>
        <time>2019-05-01T09:09:32.001Z</time>
      </trkpt>
      <trkpt lat="44.12237" lon="7.3856">
        <ele>2986</ele>
        <time>2019-05-01T09:12:45.001Z</time>
      </trkpt>
      <trkpt lat="44.12237" lon="7.38534">
        <ele>2986</ele>
        <time>2019-05-01T09:14:08.001Z</time>
      </trkpt>
      <trkpt lat="44.12251" lon="7.38516">
        <ele>3002</ele>
        <time>2019-05-01T09:22:51.001Z</time>
      </trkpt>
      <trkpt lat="44.12267" lon="7.38502">
        <ele>3003</ele>
        <time>2019-05-01T09:23:28.001Z</time>
      </trkpt>
      <trkpt lat="44.12255" lon="7.38522">
        <ele>3003</ele>
        <time>2019-05-01T09:24:06.001Z</time>
      </trkpt>
      <trkpt lat="44.12259" lon="7.38498">
        <ele>3006</ele>
        <time>2019-05-01T09:32:58.001Z</time>
      </trkpt>
      <trkpt lat="44.12256" lon="7.38469">
        <ele>3021</ele>
        <time>2019-05-01T09:35:00.000Z</time>
      </trkpt>
      <trkpt lat="44.12253" lon="7.38441">
        <ele>3037</ele>
        <time>2019-05-01T09:37:01.001Z</time>
      </trkpt>
      <trkpt lat="44.12244" lon="7.38419">
        <ele>3053</ele>
        <time>2019-05-01T09:42:46.001Z</time>
      </trkpt>
      <trkpt lat="44.12253" lon="7.38397">
        <ele>3061</ele>
        <time>2019-05-01T09:45:55.001Z</time>
      </trkpt>
      <trkpt lat="44.1227" lon="7.38402">
        <ele>3059</ele>
        <time>2019-05-01T10:00:18.001Z</time>
      </trkpt>
      <trkpt lat="44.12254" lon="7.38393">
        <ele>3060</ele>
        <time>2019-05-01T10:16:25.001Z</time>
      </trkpt>
      <trkpt lat="44.12235" lon="7.38402">
        <ele>3058</ele>
        <time>2019-05-01T10:25:34.001Z</time>
      </trkpt>
      <trkpt lat="44.12236" lon="7.38427">
        <ele>3042</ele>
        <time>2019-05-01T10:52:41.000Z</time>
      </trkpt>
      <trkpt lat="44.12232" lon="7.38451">
        <ele>3026</ele>
        <time>2019-05-01T10:59:15.001Z</time>
      </trkpt>
      <trkpt lat="44.12239" lon="7.38476">
        <ele>3014</ele>
        <time>2019-05-01T11:06:04.001Z</time>
      </trkpt>
      <trkpt lat="44.12241" lon="7.38501">
        <ele>2992</ele>
        <time>2019-05-01T11:10:20.001Z</time>
      </trkpt>
      <trkpt lat="44.12242" lon="7.3853">
        <ele>2987</ele>
        <time>2019-05-01T11:10:28.001Z</time>
      </trkpt>
      <trkpt lat="44.12238" lon="7.38567">
        <ele>2986</ele>
        <time>2019-05-01T11:10:30.001Z</time>
      </trkpt>
      <trkpt lat="44.12232" lon="7.38597">
        <ele>2984</ele>
        <time>2019-05-01T11:10:33.001Z</time>
      </trkpt>
      <trkpt lat="44.12235" lon="7.38632">
        <ele>2983</ele>
        <time>2019-05-01T11:10:36.001Z</time>
      </trkpt>
      <trkpt lat="44.12217" lon="7.38618">
        <ele>2981</ele>
        <time>2019-05-01T11:10:41.001Z</time>
      </trkpt>
      <trkpt lat="44.12205" lon="7.38647">
        <ele>2979</ele>
        <time>2019-05-01T11:10:52.001Z</time>
      </trkpt>
      <trkpt lat="44.12193" lon="7.38669">
        <ele>2974</ele>
        <time>2019-05-01T11:10:54.001Z</time>
      </trkpt>
      <trkpt lat="44.12186" lon="7.38693">
        <ele>2973</ele>
        <time>2019-05-01T11:27:41.750Z</time>
      </trkpt>
      <trkpt lat="44.12169" lon="7.38683">
        <ele>2969</ele>
        <time>2019-05-01T11:37:12.000Z</time>
      </trkpt>
      <trkpt lat="44.12149" lon="7.38694">
        <ele>2951</ele>
        <time>2019-05-01T11:37:17.000Z</time>
      </trkpt>
      <trkpt lat="44.12128" lon="7.38692">
        <ele>2946</ele>
        <time>2019-05-01T11:37:22.000Z</time>
      </trkpt>
      <trkpt lat="44.12105" lon="7.38693">
        <ele>2942</ele>
        <time>2019-05-01T11:37:40.000Z</time>
      </trkpt>
      <trkpt lat="44.12087" lon="7.38687">
        <ele>2940</ele>
        <time>2019-05-01T11:37:43.000Z</time>
      </trkpt>
      <trkpt lat="44.12067" lon="7.38677">
        <ele>2927</ele>
        <time>2019-05-01T11:37:47.000Z</time>
      </trkpt>
      <trkpt lat="44.12054" lon="7.38658">
        <ele>2934</ele>
        <time>2019-05-01T11:40:23.000Z</time>
      </trkpt>
      <trkpt lat="44.12034" lon="7.38641">
        <ele>2932</ele>
        <time>2019-05-01T11:40:27.000Z</time>
      </trkpt>
      <trkpt lat="44.12017" lon="7.38633">
        <ele>2931</ele>
        <time>2019-05-01T11:40:30.000Z</time>
      </trkpt>
      <trkpt lat="44.11999" lon="7.38621">
        <ele>2920</ele>
        <time>2019-05-01T11:40:36.000Z</time>
      </trkpt>
      <trkpt lat="44.11981" lon="7.38618">
        <ele>2919</ele>
        <time>2019-05-01T11:40:39.000Z</time>
      </trkpt>
      <trkpt lat="44.11962" lon="7.38614">
        <ele>2917</ele>
        <time>2019-05-01T11:40:42.000Z</time>
      </trkpt>
      <trkpt lat="44.11949" lon="7.38588">
        <ele>2914</ele>
        <time>2019-05-01T11:40:45.000Z</time>
      </trkpt>
      <trkpt lat="44.11929" lon="7.38583">
        <ele>2907</ele>
        <time>2019-05-01T11:40:48.000Z</time>
      </trkpt>
      <trkpt lat="44.11917" lon="7.38565">
        <ele>2909</ele>
        <time>2019-05-01T11:40:51.000Z</time>
      </trkpt>
      <trkpt lat="44.11906" lon="7.3854">
        <ele>2888</ele>
        <time>2019-05-01T11:40:54.000Z</time>
      </trkpt>
      <trkpt lat="44.11895" lon="7.38513">
        <ele>2888</ele>
        <time>2019-05-01T11:40:57.000Z</time>
      </trkpt>
      <trkpt lat="44.11881" lon="7.3849">
        <ele>2875</ele>
        <time>2019-05-01T11:41:00.000Z</time>
      </trkpt>
      <trkpt lat="44.11856" lon="7.38498">
        <ele>2867</ele>
        <time>2019-05-01T11:41:03.000Z</time>
      </trkpt>
      <trkpt lat="44.11831" lon="7.38507">
        <ele>2855</ele>
        <time>2019-05-01T11:41:05.000Z</time>
      </trkpt>
      <trkpt lat="44.11801" lon="7.38497">
        <ele>2846</ele>
        <time>2019-05-01T11:41:07.000Z</time>
      </trkpt>
      <trkpt lat="44.11775" lon="7.38482">
        <ele>2840</ele>
        <time>2019-05-01T11:41:09.000Z</time>
      </trkpt>
      <trkpt lat="44.11748" lon="7.38478">
        <ele>2831</ele>
        <time>2019-05-01T11:41:11.000Z</time>
      </trkpt>
      <trkpt lat="44.11723" lon="7.38472">
        <ele>2832</ele>
        <time>2019-05-01T11:41:13.000Z</time>
      </trkpt>
      <trkpt lat="44.11719" lon="7.38498">
        <ele>2831</ele>
        <time>2019-05-01T11:41:47.000Z</time>
      </trkpt>
      <trkpt lat="44.11703" lon="7.38509">
        <ele>2827</ele>
        <time>2019-05-01T11:41:51.000Z</time>
      </trkpt>
      <trkpt lat="44.11687" lon="7.38522">
        <ele>2826</ele>
        <time>2019-05-01T11:42:01.000Z</time>
      </trkpt>
      <trkpt lat="44.11665" lon="7.38527">
        <ele>2817</ele>
        <time>2019-05-01T11:42:06.000Z</time>
      </trkpt>
      <trkpt lat="44.11649" lon="7.38514">
        <ele>2817</ele>
        <time>2019-05-01T11:42:20.000Z</time>
      </trkpt>
      <trkpt lat="44.1164" lon="7.3849">
        <ele>2813.96</ele>
        <time>2019-05-01T11:42:28.000Z</time>
      </trkpt>
      <trkpt lat="44.11641" lon="7.38455">
        <ele>2811.21</ele>
        <time>2019-05-01T11:42:32.000Z</time>
      </trkpt>
      <trkpt lat="44.11631" lon="7.38426">
        <ele>2808.44</ele>
        <time>2019-05-01T11:42:35.000Z</time>
      </trkpt>
      <trkpt lat="44.11611" lon="7.38417">
        <ele>2804.08</ele>
        <time>2019-05-01T11:42:38.000Z</time>
      </trkpt>
      <trkpt lat="44.116" lon="7.38438">
        <ele>2786.51</ele>
        <time>2019-05-01T11:44:06.000Z</time>
      </trkpt>
      <trkpt lat="44.11584" lon="7.38425">
        <ele>2780.78</ele>
        <time>2019-05-01T11:44:10.000Z</time>
      </trkpt>
      <trkpt lat="44.11578" lon="7.384">
        <ele>2778.91</ele>
        <time>2019-05-01T11:44:12.000Z</time>
      </trkpt>
      <trkpt lat="44.11553" lon="7.38398">
        <ele>2776.04</ele>
        <time>2019-05-01T11:44:15.000Z</time>
      </trkpt>
      <trkpt lat="44.11539" lon="7.38382">
        <ele>2773.04</ele>
        <time>2019-05-01T11:44:19.000Z</time>
      </trkpt>
      <trkpt lat="44.11531" lon="7.38356">
        <ele>2768.61</ele>
        <time>2019-05-01T11:44:23.000Z</time>
      </trkpt>
      <trkpt lat="44.11523" lon="7.38333">
        <ele>2762.58</ele>
        <time>2019-05-01T11:44:27.000Z</time>
      </trkpt>
      <trkpt lat="44.11517" lon="7.38308">
        <ele>2748.25</ele>
        <time>2019-05-01T11:44:34.000Z</time>
      </trkpt>
      <trkpt lat="44.11496" lon="7.383">
        <ele>2729.73</ele>
        <time>2019-05-01T11:44:42.000Z</time>
      </trkpt>
      <trkpt lat="44.11477" lon="7.383">
        <ele>2706.3</ele>
        <time>2019-05-01T11:46:24.000Z</time>
      </trkpt>
      <trkpt lat="44.1146" lon="7.38284">
        <ele>2699.22</ele>
        <time>2019-05-01T11:46:42.000Z</time>
      </trkpt>
      <trkpt lat="44.11456" lon="7.38257">
        <ele>2697.96</ele>
        <time>2019-05-01T11:46:45.000Z</time>
      </trkpt>
      <trkpt lat="44.11439" lon="7.38242">
        <ele>2695.92</ele>
        <time>2019-05-01T11:46:48.000Z</time>
      </trkpt>
      <trkpt lat="44.11419" lon="7.3824">
        <ele>2693.38</ele>
        <time>2019-05-01T11:46:51.000Z</time>
      </trkpt>
      <trkpt lat="44.11414" lon="7.38215">
        <ele>2692.06</ele>
        <time>2019-05-01T11:46:53.000Z</time>
      </trkpt>
      <trkpt lat="44.11401" lon="7.38192">
        <ele>2686.75</ele>
        <time>2019-05-01T11:46:58.000Z</time>
      </trkpt>
      <trkpt lat="44.11384" lon="7.38173">
        <ele>2681.76</ele>
        <time>2019-05-01T11:47:02.000Z</time>
      </trkpt>
      <trkpt lat="44.11365" lon="7.38156">
        <ele>2676.73</ele>
        <time>2019-05-01T11:47:05.000Z</time>
      </trkpt>
      <trkpt lat="44.11355" lon="7.38132">
        <ele>2671.18</ele>
        <time>2019-05-01T11:47:08.000Z</time>
      </trkpt>
      <trkpt lat="44.11333" lon="7.38118">
        <ele>2666.9</ele>
        <time>2019-05-01T11:47:11.000Z</time>
      </trkpt>
      <trkpt lat="44.11307" lon="7.38096">
        <ele>2663.67</ele>
        <time>2019-05-01T11:47:13.000Z</time>
      </trkpt>
      <trkpt lat="44.11282" lon="7.3807">
        <ele>2659.77</ele>
        <time>2019-05-01T11:47:15.000Z</time>
      </trkpt>
      <trkpt lat="44.11259" lon="7.38048">
        <ele>2655.75</ele>
        <time>2019-05-01T11:47:17.000Z</time>
      </trkpt>
      <trkpt lat="44.11239" lon="7.38032">
        <ele>2550</ele>
        <time>2019-05-01T11:47:19.000Z</time>
      </trkpt>
      <trkpt lat="44.1122" lon="7.38015">
        <ele>2550</ele>
        <time>2019-05-01T11:47:22.000Z</time>
      </trkpt>
      <trkpt lat="44.11204" lon="7.37998">
        <ele>2547</ele>
        <time>2019-05-01T11:47:26.000Z</time>
      </trkpt>
      <trkpt lat="44.11206" lon="7.37968">
        <ele>2547</ele>
        <time>2019-05-01T11:47:32.000Z</time>
      </trkpt>
      <trkpt lat="44.11208" lon="7.37939">
        <ele>2546</ele>
        <time>2019-05-01T11:48:01.000Z</time>
      </trkpt>
      <trkpt lat="44.112" lon="7.37915">
        <ele>2534</ele>
        <time>2019-05-01T11:48:05.000Z</time>
      </trkpt>
      <trkpt lat="44.11183" lon="7.37896">
        <ele>2531</ele>
        <time>2019-05-01T11:48:09.000Z</time>
      </trkpt>
      <trkpt lat="44.11163" lon="7.3789">
        <ele>2517</ele>
        <time>2019-05-01T11:48:37.000Z</time>
      </trkpt>
      <trkpt lat="44.11144" lon="7.37872">
        <ele>2511</ele>
        <time>2019-05-01T11:48:40.000Z</time>
      </trkpt>
      <trkpt lat="44.11127" lon="7.37846">
        <ele>2507</ele>
        <time>2019-05-01T11:48:43.000Z</time>
      </trkpt>
      <trkpt lat="44.1111" lon="7.37834">
        <ele>2503</ele>
        <time>2019-05-01T11:48:45.000Z</time>
      </trkpt>
      <trkpt lat="44.1109" lon="7.37834">
        <ele>2495</ele>
        <time>2019-05-01T11:48:47.000Z</time>
      </trkpt>
      <trkpt lat="44.1107" lon="7.37818">
        <ele>2480</ele>
        <time>2019-05-01T11:48:50.000Z</time>
      </trkpt>
      <trkpt lat="44.11074" lon="7.37783">
        <ele>2472</ele>
        <time>2019-05-01T11:48:53.000Z</time>
      </trkpt>
      <trkpt lat="44.11058" lon="7.37764">
        <ele>2469</ele>
        <time>2019-05-01T11:48:56.000Z</time>
      </trkpt>
      <trkpt lat="44.11044" lon="7.37745">
        <ele>2446</ele>
        <time>2019-05-01T11:49:00.000Z</time>
      </trkpt>
      <trkpt lat="44.11034" lon="7.37721">
        <ele>2441</ele>
        <time>2019-05-01T11:49:10.000Z</time>
      </trkpt>
      <trkpt lat="44.11044" lon="7.37697">
        <ele>2434</ele>
        <time>2019-05-01T11:49:18.000Z</time>
      </trkpt>
      <trkpt lat="44.1104" lon="7.37668">
        <ele>2429</ele>
        <time>2019-05-01T11:49:22.000Z</time>
      </trkpt>
      <trkpt lat="44.11026" lon="7.37645">
        <ele>2405</ele>
        <time>2019-05-01T11:49:29.000Z</time>
      </trkpt>
      <trkpt lat="44.11005" lon="7.37644">
        <ele>2407</ele>
        <time>2019-05-01T11:50:13.000Z</time>
      </trkpt>
      <trkpt lat="44.10995" lon="7.37619">
        <ele>2398</ele>
        <time>2019-05-01T11:50:20.000Z</time>
      </trkpt>
      <trkpt lat="44.10974" lon="7.37627">
        <ele>2398</ele>
        <time>2019-05-01T11:50:24.000Z</time>
      </trkpt>
      <trkpt lat="44.10955" lon="7.37643">
        <ele>2398</ele>
        <time>2019-05-01T11:50:28.000Z</time>
      </trkpt>
      <trkpt lat="44.10931" lon="7.37634">
        <ele>2395</ele>
        <time>2019-05-01T11:50:32.000Z</time>
      </trkpt>
      <trkpt lat="44.10909" lon="7.37636">
        <ele>2379</ele>
        <time>2019-05-01T11:50:36.000Z</time>
      </trkpt>
      <trkpt lat="44.10891" lon="7.3764">
        <ele>2376</ele>
        <time>2019-05-01T11:50:43.000Z</time>
      </trkpt>
      <trkpt lat="44.10868" lon="7.3765">
        <ele>2370</ele>
        <time>2019-05-01T11:51:10.000Z</time>
      </trkpt>
      <trkpt lat="44.10849" lon="7.37668">
        <ele>2370</ele>
        <time>2019-05-01T11:51:14.000Z</time>
      </trkpt>
      <trkpt lat="44.10834" lon="7.37688">
        <ele>2373</ele>
        <time>2019-05-01T11:51:17.000Z</time>
      </trkpt>
      <trkpt lat="44.10821" lon="7.37709">
        <ele>2348</ele>
        <time>2019-05-01T11:52:07.000Z</time>
      </trkpt>
      <trkpt lat="44.10803" lon="7.37724">
        <ele>2346</ele>
        <time>2019-05-01T11:52:18.000Z</time>
      </trkpt>
      <trkpt lat="44.10798" lon="7.37697">
        <ele>2342</ele>
        <time>2019-05-01T11:52:22.000Z</time>
      </trkpt>
      <trkpt lat="44.10783" lon="7.37717">
        <ele>2338</ele>
        <time>2019-05-01T11:52:26.000Z</time>
      </trkpt>
      <trkpt lat="44.10769" lon="7.37742">
        <ele>2332</ele>
        <time>2019-05-01T11:52:29.000Z</time>
      </trkpt>
      <trkpt lat="44.10759" lon="7.37763">
        <ele>2338</ele>
        <time>2019-05-01T11:52:32.000Z</time>
      </trkpt>
      <trkpt lat="44.10743" lon="7.37779">
        <ele>2320</ele>
        <time>2019-05-01T11:52:35.000Z</time>
      </trkpt>
      <trkpt lat="44.10722" lon="7.37795">
        <ele>2320</ele>
        <time>2019-05-01T11:52:38.000Z</time>
      </trkpt>
      <trkpt lat="44.10703" lon="7.37806">
        <ele>2318</ele>
        <time>2019-05-01T11:52:42.000Z</time>
      </trkpt>
      <trkpt lat="44.1068" lon="7.378">
        <ele>2313</ele>
        <time>2019-05-01T11:52:45.000Z</time>
      </trkpt>
      <trkpt lat="44.1066" lon="7.37781">
        <ele>2300</ele>
        <time>2019-05-01T11:52:48.000Z</time>
      </trkpt>
      <trkpt lat="44.10651" lon="7.37752">
        <ele>2295</ele>
        <time>2019-05-01T11:52:52.000Z</time>
      </trkpt>
      <trkpt lat="44.10643" lon="7.37728">
        <ele>2279</ele>
        <time>2019-05-01T11:52:57.000Z</time>
      </trkpt>
      <trkpt lat="44.10644" lon="7.37695">
        <ele>2273</ele>
        <time>2019-05-01T11:53:01.000Z</time>
      </trkpt>
      <trkpt lat="44.10632" lon="7.37677">
        <ele>2271</ele>
        <time>2019-05-01T11:53:04.000Z</time>
      </trkpt>
      <trkpt lat="44.10616" lon="7.37664">
        <ele>2255</ele>
        <time>2019-05-01T11:53:07.000Z</time>
      </trkpt>
      <trkpt lat="44.10611" lon="7.37633">
        <ele>2253</ele>
        <time>2019-05-01T11:53:54.000Z</time>
      </trkpt>
      <trkpt lat="44.10604" lon="7.37602">
        <ele>2247</ele>
        <time>2019-05-01T11:53:57.000Z</time>
      </trkpt>
      <trkpt lat="44.10587" lon="7.37591">
        <ele>2236</ele>
        <time>2019-05-01T11:54:03.000Z</time>
      </trkpt>
      <trkpt lat="44.10568" lon="7.37585">
        <ele>2236</ele>
        <time>2019-05-01T11:54:45.000Z</time>
      </trkpt>
      <trkpt lat="44.10551" lon="7.37572">
        <ele>2227</ele>
        <time>2019-05-01T11:54:52.000Z</time>
      </trkpt>
      <trkpt lat="44.10515" lon="7.37543">
        <ele>2223</ele>
        <time>2019-05-01T11:54:56.000Z</time>
      </trkpt>
      <trkpt lat="44.10496" lon="7.37521">
        <ele>2215</ele>
        <time>2019-05-01T11:54:59.000Z</time>
      </trkpt>
      <trkpt lat="44.10483" lon="7.37502">
        <ele>2213</ele>
        <time>2019-05-01T11:55:02.000Z</time>
      </trkpt>
      <trkpt lat="44.10479" lon="7.37473">
        <ele>2199</ele>
        <time>2019-05-01T11:55:06.000Z</time>
      </trkpt>
      <trkpt lat="44.10462" lon="7.37463">
        <ele>2198</ele>
        <time>2019-05-01T11:55:10.000Z</time>
      </trkpt>
      <trkpt lat="44.1044" lon="7.37457">
        <ele>2197</ele>
        <time>2019-05-01T11:55:13.000Z</time>
      </trkpt>
      <trkpt lat="44.1042" lon="7.37452">
        <ele>2196</ele>
        <time>2019-05-01T11:55:16.000Z</time>
      </trkpt>
      <trkpt lat="44.10398" lon="7.37443">
        <ele>2200</ele>
        <time>2019-05-01T11:55:19.000Z</time>
      </trkpt>
      <trkpt lat="44.10379" lon="7.37431">
        <ele>2200</ele>
        <time>2019-05-01T11:55:23.000Z</time>
      </trkpt>
      <trkpt lat="44.10361" lon="7.37411">
        <ele>2181</ele>
        <time>2019-05-01T11:55:28.000Z</time>
      </trkpt>
      <trkpt lat="44.1035" lon="7.3739">
        <ele>2179</ele>
        <time>2019-05-01T11:55:32.000Z</time>
      </trkpt>
      <trkpt lat="44.10337" lon="7.37372">
        <ele>2175</ele>
        <time>2019-05-01T11:55:38.000Z</time>
      </trkpt>
      <trkpt lat="44.10327" lon="7.37349">
        <ele>2183</ele>
        <time>2019-05-01T11:55:48.000Z</time>
      </trkpt>
      <trkpt lat="44.10318" lon="7.37325">
        <ele>2172</ele>
        <time>2019-05-01T11:55:55.000Z</time>
      </trkpt>
      <trkpt lat="44.10309" lon="7.373">
        <ele>2174</ele>
        <time>2019-05-01T11:55:58.000Z</time>
      </trkpt>
      <trkpt lat="44.10299" lon="7.37278">
        <ele>2173</ele>
        <time>2019-05-01T11:56:04.000Z</time>
      </trkpt>
      <trkpt lat="44.10292" lon="7.3725">
        <ele>2163</ele>
        <time>2019-05-01T11:56:08.000Z</time>
      </trkpt>
      <trkpt lat="44.10284" lon="7.37216">
        <ele>2163</ele>
        <time>2019-05-01T11:56:12.000Z</time>
      </trkpt>
      <trkpt lat="44.10287" lon="7.37187">
        <ele>2161</ele>
        <time>2019-05-01T11:56:15.000Z</time>
      </trkpt>
      <trkpt lat="44.10285" lon="7.37157">
        <ele>2156</ele>
        <time>2019-05-01T11:56:23.000Z</time>
      </trkpt>
      <trkpt lat="44.10283" lon="7.37128">
        <ele>2155</ele>
        <time>2019-05-01T11:56:28.000Z</time>
      </trkpt>
      <trkpt lat="44.10276" lon="7.37103">
        <ele>2155</ele>
        <time>2019-05-01T11:56:57.000Z</time>
      </trkpt>
      <trkpt lat="44.10274" lon="7.37061">
        <ele>2148</ele>
        <time>2019-05-01T11:57:21.000Z</time>
      </trkpt>
      <trkpt lat="44.10262" lon="7.37043">
        <ele>2147</ele>
        <time>2019-05-01T11:57:49.000Z</time>
      </trkpt>
      <trkpt lat="44.10248" lon="7.37027">
        <ele>2154</ele>
        <time>2019-05-01T11:57:55.000Z</time>
      </trkpt>
      <trkpt lat="44.10231" lon="7.3701">
        <ele>2153</ele>
        <time>2019-05-01T11:58:45.000Z</time>
      </trkpt>
      <trkpt lat="44.1022" lon="7.36987">
        <ele>2141</ele>
        <time>2019-05-01T11:58:51.000Z</time>
      </trkpt>
      <trkpt lat="44.10208" lon="7.36965">
        <ele>2139</ele>
        <time>2019-05-01T11:58:55.000Z</time>
      </trkpt>
      <trkpt lat="44.10191" lon="7.36955">
        <ele>2138</ele>
        <time>2019-05-01T11:59:01.000Z</time>
      </trkpt>
      <trkpt lat="44.10173" lon="7.36937">
        <ele>2136</ele>
        <time>2019-05-01T11:59:05.000Z</time>
      </trkpt>
      <trkpt lat="44.10163" lon="7.36913">
        <ele>2134</ele>
        <time>2019-05-01T11:59:11.000Z</time>
      </trkpt>
      <trkpt lat="44.10155" lon="7.36889">
        <ele>2138</ele>
        <time>2019-05-01T11:59:18.000Z</time>
      </trkpt>
      <trkpt lat="44.10148" lon="7.36863">
        <ele>2135</ele>
        <time>2019-05-01T11:59:23.000Z</time>
      </trkpt>
      <trkpt lat="44.10132" lon="7.36821">
        <ele>2126</ele>
        <time>2019-05-01T12:00:01.000Z</time>
      </trkpt>
      <trkpt lat="44.10119" lon="7.36798">
        <ele>2126</ele>
        <time>2019-05-01T12:00:16.000Z</time>
      </trkpt>
      <trkpt lat="44.10126" lon="7.36755">
        <ele>2122</ele>
        <time>2019-05-01T12:00:31.000Z</time>
      </trkpt>
      <trkpt lat="44.10134" lon="7.3673">
        <ele>2111</ele>
        <time>2019-05-01T12:00:35.000Z</time>
      </trkpt>
      <trkpt lat="44.10127" lon="7.36701">
        <ele>2109</ele>
        <time>2019-05-01T12:00:41.000Z</time>
      </trkpt>
      <trkpt lat="44.10112" lon="7.36676">
        <ele>2108</ele>
        <time>2019-05-01T12:00:44.000Z</time>
      </trkpt>
      <trkpt lat="44.10097" lon="7.36655">
        <ele>2098</ele>
        <time>2019-05-01T12:00:48.000Z</time>
      </trkpt>
      <trkpt lat="44.10087" lon="7.36631">
        <ele>2093</ele>
        <time>2019-05-01T12:00:55.000Z</time>
      </trkpt>
      <trkpt lat="44.10076" lon="7.36609">
        <ele>2091</ele>
        <time>2019-05-01T12:01:02.000Z</time>
      </trkpt>
      <trkpt lat="44.10084" lon="7.36585">
        <ele>2080</ele>
        <time>2019-05-01T12:01:11.000Z</time>
      </trkpt>
      <trkpt lat="44.10071" lon="7.36564">
        <ele>2069</ele>
        <time>2019-05-01T12:01:19.000Z</time>
      </trkpt>
      <trkpt lat="44.10064" lon="7.36535">
        <ele>2061</ele>
        <time>2019-05-01T12:01:26.000Z</time>
      </trkpt>
      <trkpt lat="44.10082" lon="7.36518">
        <ele>2056</ele>
        <time>2019-05-01T12:01:43.000Z</time>
      </trkpt>
      <trkpt lat="44.10078" lon="7.36492">
        <ele>2044</ele>
        <time>2019-05-01T12:02:07.000Z</time>
      </trkpt>
      <trkpt lat="44.10078" lon="7.36463">
        <ele>2036</ele>
        <time>2019-05-01T12:02:10.000Z</time>
      </trkpt>
      <trkpt lat="44.10072" lon="7.36434">
        <ele>2032</ele>
        <time>2019-05-01T12:02:13.001Z</time>
      </trkpt>
      <trkpt lat="44.10052" lon="7.36436">
        <ele>2031</ele>
        <time>2019-05-01T12:02:17.001Z</time>
      </trkpt>
      <trkpt lat="44.10033" lon="7.36442">
        <ele>2029</ele>
        <time>2019-05-01T12:02:21.001Z</time>
      </trkpt>
      <trkpt lat="44.10035" lon="7.36417">
        <ele>2014</ele>
        <time>2019-05-01T12:02:38.001Z</time>
      </trkpt>
      <trkpt lat="44.10048" lon="7.36395">
        <ele>2014</ele>
        <time>2019-05-01T12:02:46.001Z</time>
      </trkpt>
      <trkpt lat="44.10028" lon="7.36391">
        <ele>2011</ele>
        <time>2019-05-01T12:03:45.001Z</time>
      </trkpt>
      <trkpt lat="44.10027" lon="7.36366">
        <ele>2007</ele>
        <time>2019-05-01T12:03:50.001Z</time>
      </trkpt>
      <trkpt lat="44.10009" lon="7.3636">
        <ele>2004</ele>
        <time>2019-05-01T12:04:08.001Z</time>
      </trkpt>
      <trkpt lat="44.09997" lon="7.36338">
        <ele>1990</ele>
        <time>2019-05-01T12:04:42.001Z</time>
      </trkpt>
      <trkpt lat="44.10004" lon="7.36311">
        <ele>1988</ele>
        <time>2019-05-01T12:04:59.001Z</time>
      </trkpt>
      <trkpt lat="44.09987" lon="7.36293">
        <ele>1975</ele>
        <time>2019-05-01T12:05:07.001Z</time>
      </trkpt>
      <trkpt lat="44.09961" lon="7.36289">
        <ele>1972</ele>
        <time>2019-05-01T12:05:23.001Z</time>
      </trkpt>
      <trkpt lat="44.09943" lon="7.36293">
        <ele>1971</ele>
        <time>2019-05-01T12:12:08.001Z</time>
      </trkpt>
      <trkpt lat="44.09925" lon="7.36285">
        <ele>1968</ele>
        <time>2019-05-01T12:12:33.001Z</time>
      </trkpt>
      <trkpt lat="44.09908" lon="7.36276">
        <ele>1955</ele>
        <time>2019-05-01T12:12:53.001Z</time>
      </trkpt>
      <trkpt lat="44.09889" lon="7.36269">
        <ele>1953</ele>
        <time>2019-05-01T12:13:11.001Z</time>
      </trkpt>
      <trkpt lat="44.09871" lon="7.36262">
        <ele>1950</ele>
        <time>2019-05-01T12:13:41.001Z</time>
      </trkpt>
      <trkpt lat="44.09854" lon="7.36264">
        <ele>1946</ele>
        <time>2019-05-01T12:14:47.001Z</time>
      </trkpt>
      <trkpt lat="44.09835" lon="7.36259">
        <ele>1939</ele>
        <time>2019-05-01T12:15:19.001Z</time>
      </trkpt>
      <trkpt lat="44.09818" lon="7.36249">
        <ele>1925</ele>
        <time>2019-05-01T12:15:33.001Z</time>
      </trkpt>
      <trkpt lat="44.09804" lon="7.36233">
        <ele>1920</ele>
        <time>2019-05-01T12:15:50.001Z</time>
      </trkpt>
      <trkpt lat="44.09785" lon="7.36228">
        <ele>1917</ele>
        <time>2019-05-01T12:16:30.001Z</time>
      </trkpt>
      <trkpt lat="44.09767" lon="7.36224">
        <ele>1915</ele>
        <time>2019-05-01T12:16:52.001Z</time>
      </trkpt>
      <trkpt lat="44.09749" lon="7.36215">
        <ele>1902</ele>
        <time>2019-05-01T12:17:19.001Z</time>
      </trkpt>
      <trkpt lat="44.09732" lon="7.36204">
        <ele>1900</ele>
        <time>2019-05-01T12:17:35.001Z</time>
      </trkpt>
      <trkpt lat="44.09712" lon="7.36199">
        <ele>1898</ele>
        <time>2019-05-01T12:17:53.001Z</time>
      </trkpt>
      <trkpt lat="44.09693" lon="7.36192">
        <ele>1896</ele>
        <time>2019-05-01T12:18:06.001Z</time>
      </trkpt>
      <trkpt lat="44.09676" lon="7.36185">
        <ele>1893</ele>
        <time>2019-05-01T12:18:25.001Z</time>
      </trkpt>
      <trkpt lat="44.09659" lon="7.36174">
        <ele>1888</ele>
        <time>2019-05-01T12:19:00.000Z</time>
      </trkpt>
      <trkpt lat="44.09643" lon="7.36158">
        <ele>1886</ele>
        <time>2019-05-01T12:19:18.001Z</time>
      </trkpt>
      <trkpt lat="44.09628" lon="7.36145">
        <ele>1886</ele>
        <time>2019-05-01T12:19:40.001Z</time>
      </trkpt>
      <trkpt lat="44.09614" lon="7.36129">
        <ele>1886</ele>
        <time>2019-05-01T12:20:00.000Z</time>
      </trkpt>
      <trkpt lat="44.09612" lon="7.36104">
        <ele>1884</ele>
        <time>2019-05-01T12:20:33.001Z</time>
      </trkpt>
      <trkpt lat="44.09613" lon="7.36079">
        <ele>1882</ele>
        <time>2019-05-01T12:20:56.001Z</time>
      </trkpt>
      <trkpt lat="44.09603" lon="7.36057">
        <ele>1882</ele>
        <time>2019-05-01T12:21:20.001Z</time>
      </trkpt>
      <trkpt lat="44.09594" lon="7.36035">
        <ele>1880</ele>
        <time>2019-05-01T12:21:48.001Z</time>
      </trkpt>
      <trkpt lat="44.09579" lon="7.3602">
        <ele>1873</ele>
        <time>2019-05-01T12:22:16.000Z</time>
      </trkpt>
      <trkpt lat="44.09561" lon="7.36013">
        <ele>1872</ele>
        <time>2019-05-01T12:22:41.001Z</time>
      </trkpt>
      <trkpt lat="44.09543" lon="7.36009">
        <ele>1872</ele>
        <time>2019-05-01T12:23:06.001Z</time>
      </trkpt>
      <trkpt lat="44.09545" lon="7.35983">
        <ele>1868</ele>
        <time>2019-05-01T12:24:08.001Z</time>
      </trkpt>
      <trkpt lat="44.09532" lon="7.35965">
        <ele>1867</ele>
        <time>2019-05-01T12:24:29.001Z</time>
      </trkpt>
      <trkpt lat="44.0952" lon="7.35946">
        <ele>1866</ele>
        <time>2019-05-01T12:24:51.001Z</time>
      </trkpt>
      <trkpt lat="44.09508" lon="7.35925">
        <ele>1862</ele>
        <time>2019-05-01T12:25:05.001Z</time>
      </trkpt>
      <trkpt lat="44.09501" lon="7.359">
        <ele>1864</ele>
        <time>2019-05-01T12:25:21.001Z</time>
      </trkpt>
      <trkpt lat="44.09502" lon="7.35875">
        <ele>1868</ele>
        <time>2019-05-01T12:25:39.001Z</time>
      </trkpt>
      <trkpt lat="44.09496" lon="7.3585">
        <ele>1861</ele>
        <time>2019-05-01T12:25:59.001Z</time>
      </trkpt>
      <trkpt lat="44.09488" lon="7.35826">
        <ele>1861</ele>
        <time>2019-05-01T12:26:16.000Z</time>
      </trkpt>
      <trkpt lat="44.0948" lon="7.35804">
        <ele>1861</ele>
        <time>2019-05-01T12:26:34.001Z</time>
      </trkpt>
      <trkpt lat="44.09469" lon="7.35784">
        <ele>1861</ele>
        <time>2019-05-01T12:27:10.001Z</time>
      </trkpt>
      <trkpt lat="44.09472" lon="7.35758">
        <ele>1862</ele>
        <time>2019-05-01T12:27:41.001Z</time>
      </trkpt>
      <trkpt lat="44.09458" lon="7.35739">
        <ele>1863</ele>
        <time>2019-05-01T12:27:59.001Z</time>
      </trkpt>
      <trkpt lat="44.09442" lon="7.35727">
        <ele>1860</ele>
        <time>2019-05-01T12:28:14.001Z</time>
      </trkpt>
      <trkpt lat="44.09426" lon="7.35717">
        <ele>1859</ele>
        <time>2019-05-01T12:28:26.001Z</time>
      </trkpt>
      <trkpt lat="44.0941" lon="7.35702">
        <ele>1851</ele>
        <time>2019-05-01T12:28:37.001Z</time>
      </trkpt>
      <trkpt lat="44.09398" lon="7.35684">
        <ele>1851</ele>
        <time>2019-05-01T12:28:50.001Z</time>
      </trkpt>
      <trkpt lat="44.09383" lon="7.3567">
        <ele>1850</ele>
        <time>2019-05-01T12:29:05.001Z</time>
      </trkpt>
    </trkseg>
  </trk>
</gpx>